Time;durP1;ratioP1;P1;durP2;ratioP2;P2;SDS_P1;SDS_P2;PMS_P1;PMS_P2;Temp;Humidity;BMP_temperature;BMP_pressure;BME280_temperature;BME280_humidity;BME280_pressure;Samples;Min_cycle;Max_cycle;Signal;HPM_P1;HPM_P2
2022/11/04 00:01:21;;;;;;;;;5.67;2.00;;;;;11.87;70.15;99974.19;4951430;28;45889;-61
2022/11/04 00:03:47;;;;;;;;;5.33;1.00;;;;;11.88;69.60;99970.66;4954461;28;45458;-61
2022/11/04 00:06:12;;;;;;;;;3.33;1.00;;;;;11.84;69.51;99967.22;4953515;28;45514;-60
2022/11/04 00:08:38;;;;;;;;;4.33;1.00;;;;;11.79;69.50;99960.28;4950369;28;45347;-62
2022/11/04 00:13:47;;;;;;;;;1.00;1.00;;;;;11.81;69.57;99941.00;4954109;28;45500;-63
2022/11/04 00:19:01;;;;;;;;;3.00;1.50;;;;;11.86;69.82;99933.94;4949569;28;46607;-64
2022/11/04 00:29:42;;;;;;;;;3.00;2.00;;;;;11.73;70.47;99923.66;4945011;28;45799;-62
2022/11/04 00:34:52;;;;;;;;;2.75;1.00;;;;;11.85;70.48;99926.94;4952820;28;45430;-62
2022/11/04 00:37:17;;;;;;;;;2.25;2.25;;;;;11.78;70.19;99912.19;4954558;28;45461;-63
2022/11/04 00:39:43;;;;;;;;;1.00;0.67;;;;;11.76;70.85;99921.84;4951043;28;45379;-60
2022/11/04 00:42:09;;;;;;;;;5.25;1.00;;;;;11.83;70.78;99933.97;4951404;28;45307;-61
2022/11/04 00:44:34;;;;;;;;;1.67;1.00;;;;;11.61;70.53;99873.13;4951717;28;45452;-61
2022/11/04 00:47:00;;;;;;;;;2.00;1.33;;;;;11.88;70.30;99928.69;4953659;28;45889;-63
2022/11/04 00:49:25;;;;;;;;;2.33;2.00;;;;;11.84;70.60;99924.34;4956077;28;46570;-64
2022/11/04 00:51:50;;;;;;;;;4.67;1.67;;;;;11.88;70.96;99928.69;4938503;28;45422;-61
2022/11/04 00:54:16;;;;;;;;;1.00;1.00;;;;;11.88;70.64;99929.53;4951417;28;45477;-63
2022/11/04 00:56:42;;;;;;;;;1.33;1.33;;;;;11.90;70.02;99936.53;5015067;28;45822;-61
2022/11/04 00:59:09;;;;;;;;;0.33;0.33;;;;;11.92;70.68;99926.88;5028475;28;46587;-61
2022/11/04 01:01:34;;;;;;;;;3.00;1.00;;;;;11.86;70.70;99917.31;5053316;28;45301;-62
2022/11/04 01:04:00;;;;;;;;;1.33;0.67;;;;;11.81;70.63;99916.53;4955303;28;45423;-61
2022/11/04 01:06:27;;;;;;;;;3.00;0.00;;;;;11.83;70.75;99920.84;4955471;28;45447;-63
2022/11/04 01:09:05;;;;;;;;;1.00;1.00;;;;;11.76;71.15;99902.63;4950970;28;46145;-62
2022/11/04 01:11:30;;;;;;;;;1.00;0.00;;;;;11.82;70.75;99911.25;4950282;28;45404;-61
2022/11/04 01:13:57;;;;;;;;;1.33;1.00;;;;;11.89;70.25;99901.56;4951148;28;45410;-63
2022/11/04 01:16:23;;;;;;;;;3.50;2.00;;;;;11.85;71.08;99887.59;4950723;28;45362;-61
2022/11/04 01:18:49;;;;;;;;;0.33;0.33;;;;;11.91;70.60;99896.28;5041000;28;47293;-62
2022/11/04 01:21:16;;;;;;;;;1.25;1.00;;;;;11.85;70.85;99899.84;4954576;28;45477;-60
2022/11/04 01:23:43;;;;;;;;;2.00;0.00;;;;;11.81;71.31;99899.00;4955406;28;45407;-61
2022/11/04 01:26:15;;;;;;;;;4.25;2.00;;;;;11.83;71.52;99894.63;5019843;28;45529;-61
2022/11/04 01:28:41;;;;;;;;;2.00;0.67;;;;;11.87;71.47;99892.84;4950753;28;46010;-61
2022/11/04 01:31:12;;;;;;;;;1.00;1.00;;;;;11.88;71.65;99891.94;4950778;28;45634;-61
2022/11/04 01:33:38;;;;;;;;;0.67;0.67;;;;;11.88;71.65;99895.44;5020818;28;45537;-61
2022/11/04 01:36:05;;;;;;;;;2.33;1.33;;;;;11.82;71.60;99892.91;4950626;28;45512;-62
2022/11/04 01:38:31;;;;;;;;;2.00;1.00;;;;;11.78;71.36;99885.09;5018187;28;45636;-60
2022/11/04 01:40:57;;;;;;;;;2.00;0.33;;;;;11.76;71.46;99890.34;4952676;28;45513;-61
2022/11/04 01:43:48;;;;;;;;;2.50;1.00;;;;;11.84;71.21;99882.34;4950873;28;45430;-60
2022/11/04 01:46:37;;;;;;;;;3.00;1.00;;;;;11.80;71.57;99880.69;4953505;28;45354;-64
2022/11/04 01:49:13;;;;;;;;;1.67;0.33;;;;;11.72;71.54;99866.81;4949599;28;46409;-67
2022/11/04 01:51:41;;;;;;;;;2.00;1.00;;;;;11.83;71.16;99868.38;4949722;28;45478;-61
2022/11/04 01:54:07;;;;;;;;;1.00;1.00;;;;;11.84;70.53;99875.38;4949941;28;45430;-61
2022/11/04 01:56:33;;;;;;;;;2.00;1.00;;;;;11.80;70.68;99864.94;4946662;28;45431;-60
2022/11/04 01:59:05;;;;;;;;;4.25;1.00;;;;;11.74;70.90;99854.56;4951170;28;46387;-61
2022/11/04 02:01:30;;;;;;;;;3.00;1.00;;;;;11.74;71.13;99854.56;4953276;28;45690;-62
2022/11/04 02:04:24;;;;;;;;;0.00;0.00;;;;;11.65;71.11;99843.34;4954245;28;45463;-62
2022/11/04 02:06:49;;;;;;;;;1.00;1.00;;;;;11.66;70.76;99839.81;4953596;28;45443;-63
2022/11/04 02:09:17;;;;;;;;;2.00;0.00;;;;;11.70;70.62;99834.50;4953014;28;46671;-60
2022/11/04 02:14:27;;;;;;;;;0.00;0.00;;;;;11.68;70.71;99845.91;4955531;28;45541;-61
2022/11/04 02:17:03;;;;;;;;;0.00;0.00;;;;;11.63;71.30;99852.97;4957458;28;45493;-61
2022/11/04 02:19:56;;;;;;;;;2.33;0.00;;;;;11.65;71.05;99839.81;4957322;28;46624;-64
2022/11/04 02:22:56;;;;;;;;;2.33;0.00;;;;;11.70;70.66;99835.38;5023969;28;45359;-60
2022/11/04 02:25:30;;;;;;;;;1.00;0.00;;;;;11.74;71.03;99833.56;4967854;28;45524;-62
2022/11/04 02:28:14;;;;;;;;;0.00;0.00;;;;;11.70;70.99;99840.63;4953703;28;45392;-59
2022/11/04 02:30:52;;;;;;;;;1.67;1.00;;;;;11.73;71.06;99847.59;4953233;28;45485;-60
2022/11/04 02:33:26;;;;;;;;;0.00;0.00;;;;;11.73;70.85;99848.44;4952868;28;45876;-62
2022/11/04 02:36:08;;;;;;;;;2.33;0.00;;;;;11.72;70.93;99844.09;4953008;28;45604;-62
2022/11/04 02:38:50;;;;;;;;;0.33;0.33;;;;;11.79;70.70;99858.84;4954051;28;45721;-62
2022/11/04 02:41:51;;;;;;;;;2.67;0.00;;;;;11.80;70.44;99857.09;4954932;28;45455;-62
2022/11/04 02:44:36;;;;;;;;;2.00;0.00;;;;;11.84;70.85;99848.25;4974526;28;45902;-60
2022/11/04 02:47:12;;;;;;;;;1.00;1.00;;;;;11.87;70.54;99843.00;4952733;28;46042;-61
2022/11/04 02:49:45;;;;;;;;;2.67;0.00;;;;;11.76;70.73;99835.25;4953215;28;45312;-60
2022/11/04 02:52:19;;;;;;;;;2.33;1.00;;;;;11.86;70.68;99844.72;5019055;28;46937;-61
2022/11/04 02:55:05;;;;;;;;;2.33;1.00;;;;;11.93;70.32;99837.63;4952589;28;45319;-62
2022/11/04 02:57:35;;;;;;;;;2.67;1.00;;;;;11.87;70.43;99829.88;4939052;28;45878;-60
2022/11/04 03:00:06;;;;;;;;;2.00;0.00;;;;;11.88;70.25;99826.34;4953865;28;45534;-62
2022/11/04 03:02:37;;;;;;;;;1.00;1.00;;;;;11.88;70.70;99826.34;4951811;28;45402;-60
2022/11/04 03:05:07;;;;;;;;;2.00;0.00;;;;;11.82;70.77;99813.31;4946940;28;47559;-61
2022/11/04 03:07:39;;;;;;;;;0.67;0.00;;;;;11.88;71.04;99831.59;4933059;28;45653;-63
2022/11/04 03:10:11;;;;;;;;;1.33;0.00;;;;;11.87;70.72;99822.88;4938063;28;45666;-61
2022/11/04 03:12:44;;;;;;;;;2.00;2.00;;;;;11.77;70.54;99818.66;4939479;28;45489;-61
2022/11/04 03:15:19;;;;;;;;;2.33;0.00;;;;;11.78;70.83;99817.75;4952610;28;45466;-60
2022/11/04 03:17:57;;;;;;;;;1.00;0.00;;;;;11.74;70.96;99823.06;4952159;28;45438;-61
2022/11/04 03:20:26;;;;;;;;;1.67;1.00;;;;;11.77;71.18;99804.66;4940532;28;45844;-60
2022/11/04 03:22:54;;;;;;;;;3.67;0.33;;;;;11.78;70.86;99811.63;5015211;28;47383;-60
2022/11/04 03:25:24;;;;;;;;;0.33;0.00;;;;;11.78;70.67;99795.91;5003345;28;45424;-62
2022/11/04 03:27:50;;;;;;;;;1.50;1.50;;;;;11.86;70.79;99799.22;5018790;28;45540;-62
2022/11/04 03:30:18;;;;;;;;;1.67;1.67;;;;;11.87;70.89;99795.78;4952580;28;45657;-63
2022/11/04 03:32:53;;;;;;;;;0.00;0.00;;;;;11.85;70.45;99782.63;4952142;28;46779;-63
2022/11/04 03:35:19;;;;;;;;;1.33;1.33;;;;;11.88;70.12;99779.97;4952260;28;45832;-61
2022/11/04 03:37:47;;;;;;;;;3.33;0.00;;;;;11.91;70.46;99786.94;4952177;28;45421;-62
2022/11/04 03:40:14;;;;;;;;;1.00;1.00;;;;;11.92;70.24;99782.56;4938499;28;45825;-62
2022/11/04 03:42:46;;;;;;;;;1.67;0.00;;;;;11.70;70.22;99745.31;4951397;28;45797;-62
2022/11/04 03:45:13;;;;;;;;;2.00;0.00;;;;;11.79;70.09;99772.28;5052086;28;45435;-63
2022/11/04 03:47:38;;;;;;;;;0.00;0.00;;;;;11.78;70.26;99795.91;4951674;28;45584;-62
2022/11/04 03:50:08;;;;;;;;;3.00;0.67;;;;;11.78;70.45;99791.50;4952648;28;45389;-61
2022/11/04 03:52:35;;;;;;;;;1.00;1.00;;;;;11.66;70.24;99760.25;4952227;28;45701;-61
2022/11/04 03:55:02;;;;;;;;;0.33;0.00;;;;;11.74;70.47;99784.59;4952278;28;45417;-62
2022/11/04 03:57:44;;;;;;;;;1.00;1.00;;;;;11.75;70.20;99790.72;4952056;28;46205;-62
2022/11/04 04:00:14;;;;;;;;;2.00;0.00;;;;;11.65;70.39;99774.25;4955162;28;45443;-60
2022/11/04 04:03:01;;;;;;;;;1.67;0.00;;;;;11.68;70.36;99789.97;4951694;28;46290;-61
2022/11/04 04:05:54;;;;;;;;;3.33;1.00;;;;;11.73;70.54;99787.25;5054777;28;45891;-63
2022/11/04 04:08:31;;;;;;;;;0.00;0.00;;;;;11.71;70.74;99783.78;4954736;28;45307;-62
2022/11/04 04:11:18;;;;;;;;;0.67;0.00;;;;;11.54;70.66;99794.56;4952366;28;45680;-63
2022/11/04 04:14:38;;;;;;;;;0.00;0.00;;;;;11.60;70.56;99810.19;5007193;28;46918;-63
2022/11/04 04:17:12;;;;;;;;;0.00;0.00;;;;;11.57;70.89;99805.00;4970911;28;45471;-61
2022/11/04 04:19:41;;;;;;;;;0.00;0.00;;;;;11.61;70.61;99789.19;5014121;28;45510;-61
2022/11/04 04:22:23;;;;;;;;;0.00;0.00;;;;;11.59;70.76;99784.88;4954506;28;45326;-61
2022/11/04 04:27:39;;;;;;;;;0.00;0.00;;;;;11.66;69.98;99782.09;4953907;28;45490;-62
2022/11/04 04:30:07;;;;;;;;;2.00;0.00;;;;;11.70;70.47;99803.03;4951675;28;45506;-62
2022/11/04 04:32:41;;;;;;;;;0.00;0.00;;;;;11.62;70.15;99800.53;5018960;28;45518;-61
2022/11/04 04:44:58;;;;;;;;;0.00;0.00;;;;;11.63;70.61;99803.16;4951148;28;45535;-61
2022/11/04 04:46:27;;;;;;;;;0.00;0.00;;;;;11.68;70.20;99811.78;4951938;28;46289;-61
2022/11/04 04:48:53;;;;;;;;;3.00;0.00;;;;;11.70;70.24;99806.53;4954152;28;45371;-60
2022/11/04 04:51:19;;;;;;;;;1.00;0.50;;;;;11.65;70.25;99805.72;5018079;28;45464;-62
2022/11/04 04:53:45;;;;;;;;;0.00;0.00;;;;;11.65;70.02;99803.09;4951331;28;45607;-61
2022/11/04 04:56:10;;;;;;;;;1.67;0.00;;;;;11.60;70.37;99797.06;4954750;28;46199;-61
2022/11/04 04:58:36;;;;;;;;;0.00;0.00;;;;;11.58;70.01;99805.00;4951328;28;45407;-61
2022/11/04 05:01:03;;;;;;;;;0.00;0.00;;;;;11.71;69.99;99813.50;4953826;28;45433;-61
2022/11/04 05:03:28;;;;;;;;;1.33;0.00;;;;;11.75;69.86;99811.72;4955656;28;45508;-62
2022/11/04 05:05:54;;;;;;;;;0.00;0.00;;;;;11.67;69.91;99809.19;4951836;28;45641;-61
2022/11/04 05:08:19;;;;;;;;;0.00;0.00;;;;;11.73;70.10;99816.09;4951457;28;45453;-60
2022/11/04 05:10:45;;;;;;;;;1.67;0.00;;;;;11.73;70.00;99806.47;4951130;28;45359;-60
2022/11/04 05:13:27;;;;;;;;;2.00;0.33;;;;;11.66;69.81;99810.09;4944840;28;45468;-61
2022/11/04 05:15:52;;;;;;;;;0.00;0.00;;;;;11.67;70.11;99812.72;4948262;28;45536;-60
2022/11/04 05:18:18;;;;;;;;;0.33;0.00;;;;;11.64;70.12;99814.50;4955089;28;45505;-61
2022/11/04 05:20:44;;;;;;;;;0.00;0.00;;;;;11.69;70.18;99817.91;4954795;28;45332;-60
2022/11/04 05:23:11;;;;;;;;;0.00;0.00;;;;;11.66;69.76;99810.97;5017227;28;45369;-61
2022/11/04 05:25:41;;;;;;;;;0.00;0.00;;;;;11.51;69.87;99794.59;4952471;28;46578;-62
2022/11/04 05:28:07;;;;;;;;;0.00;0.00;;;;;11.59;69.90;99813.72;4954633;28;45489;-61
2022/11/04 05:30:32;;;;;;;;;0.00;0.00;;;;;11.60;69.96;99808.47;4955297;28;45268;-61
2022/11/04 05:32:58;;;;;;;;;0.67;0.00;;;;;11.56;70.58;99808.53;4952525;28;45414;-61
2022/11/04 05:35:24;;;;;;;;;2.00;0.00;;;;;11.62;70.16;99822.38;4954164;28;45498;-60
2022/11/04 05:37:49;;;;;;;;;0.00;0.00;;;;;11.67;70.34;99814.44;4953801;28;45453;-61
2022/11/04 05:40:15;;;;;;;;;0.67;0.67;;;;;11.63;70.01;99815.41;4954004;28;45386;-61
2022/11/04 05:42:40;;;;;;;;;2.67;0.00;;;;;11.71;70.08;99818.75;4954298;28;45753;-61
2022/11/04 05:45:06;;;;;;;;;0.67;0.00;;;;;11.77;69.70;99826.53;4953423;28;46164;-62
2022/11/04 05:47:32;;;;;;;;;0.00;0.00;;;;;11.71;69.49;99805.63;5054007;27;45400;-62
2022/11/04 05:49:57;;;;;;;;;0.00;0.00;;;;;11.84;69.51;99820.28;4953703;28;45700;-62
2022/11/04 05:52:23;;;;;;;;;0.00;0.00;;;;;11.84;69.49;99827.25;4954915;28;45394;-61
2022/11/04 05:54:48;;;;;;;;;1.33;0.00;;;;;11.83;69.77;99830.78;5023126;28;45440;-63
2022/11/04 05:57:14;;;;;;;;;2.00;0.00;;;;;11.85;69.61;99831.63;5020004;28;45467;-62
2022/11/04 05:59:39;;;;;;;;;0.00;0.00;;;;;11.96;69.28;99847.19;4953606;28;45553;-61
2022/11/04 06:02:06;;;;;;;;;0.67;0.00;;;;;11.95;68.92;99834.97;5020702;28;45405;-60
2022/11/04 06:04:32;;;;;;;;;3.00;0.00;;;;;12.05;68.87;99844.41;4953348;28;46223;-62
2022/11/04 06:06:58;;;;;;;;;1.00;0.00;;;;;12.09;68.84;99846.09;4956670;28;45398;-61
2022/11/04 06:09:37;;;;;;;;;2.67;0.00;;;;;12.01;68.69;99840.13;4953380;28;45494;-61
2022/11/04 06:12:14;;;;;;;;;0.33;0.33;;;;;11.97;68.68;99841.94;5020710;28;45544;-61
2022/11/04 06:14:41;;;;;;;;;0.00;0.00;;;;;12.09;68.94;99859.22;4939727;28;46229;-62
2022/11/04 06:17:07;;;;;;;;;1.67;0.00;;;;;12.06;68.70;99859.28;4953434;28;45348;-62
2022/11/04 06:19:32;;;;;;;;;2.33;0.00;;;;;12.04;68.99;99855.81;4954056;28;45661;-62
2022/11/04 06:21:59;;;;;;;;;0.00;0.00;;;;;12.03;68.78;99860.22;4958146;28;45260;-62
2022/11/04 06:24:24;;;;;;;;;0.00;0.00;;;;;12.02;69.05;99866.34;4957336;28;46331;-61
2022/11/04 06:26:50;;;;;;;;;0.00;0.00;;;;;12.05;68.59;99876.81;4957308;28;45410;-62
2022/11/04 06:29:15;;;;;;;;;1.33;1.00;;;;;12.06;68.84;99875.03;5023521;28;45438;-62
2022/11/04 06:31:41;;;;;;;;;0.33;0.33;;;;;11.95;68.87;99867.34;5019718;28;45495;-61
2022/11/04 06:34:06;;;;;;;;;1.00;0.00;;;;;12.00;68.95;99867.25;4951001;28;46658;-62
2022/11/04 06:36:32;;;;;;;;;1.00;1.00;;;;;11.98;68.65;99856.81;4952928;28;45315;-63
2022/11/04 06:38:57;;;;;;;;;3.33;0.00;;;;;12.04;69.20;99871.56;4953699;28;45343;-65
2022/11/04 06:41:23;;;;;;;;;0.00;0.00;;;;;12.02;68.82;99875.97;4956078;28;45371;-62
2022/11/04 06:43:49;;;;;;;;;1.00;0.00;;;;;12.04;68.94;99872.44;4953740;28;45651;-64
2022/11/04 06:46:27;;;;;;;;;0.67;0.33;;;;;12.06;68.39;99864.53;4952285;28;45700;-62
2022/11/04 06:48:54;;;;;;;;;1.00;0.00;;;;;12.11;68.76;99872.31;5056670;27;45474;-63
2022/11/04 06:51:20;;;;;;;;;1.00;1.00;;;;;12.07;68.35;99861.00;5024370;28;45416;-62
2022/11/04 06:53:46;;;;;;;;;0.00;0.00;;;;;12.16;68.02;99876.59;4954250;28;45592;-62
2022/11/04 06:56:11;;;;;;;;;1.00;0.00;;;;;12.19;68.14;99879.16;4952455;28;45532;-61
2022/11/04 06:58:37;;;;;;;;;2.00;0.00;;;;;12.12;68.38;99874.91;4956535;28;45404;-60
2022/11/04 07:01:02;;;;;;;;;0.33;0.33;;;;;12.13;68.13;99881.91;4955556;28;45767;-64
2022/11/04 07:03:28;;;;;;;;;0.00;0.00;;;;;12.15;68.47;99884.47;4938961;28;46859;-61
2022/11/04 07:05:54;;;;;;;;;0.00;0.00;;;;;12.15;68.18;99881.84;5054966;27;45509;-61
2022/11/04 07:08:20;;;;;;;;;3.00;0.33;;;;;12.15;68.24;99900.22;4954404;28;45387;-61
2022/11/04 07:10:46;;;;;;;;;0.33;0.00;;;;;12.07;68.54;99879.38;4952990;28;45392;-64
2022/11/04 07:13:12;;;;;;;;;2.33;0.00;;;;;12.16;68.11;99892.34;4946187;28;45469;-62
2022/11/04 07:15:40;;;;;;;;;2.33;1.00;;;;;12.14;67.96;99888.88;4949684;28;45411;-61
2022/11/04 07:18:05;;;;;;;;;2.00;1.00;;;;;12.04;68.02;99898.66;4954986;28;45315;-61
2022/11/04 07:20:35;;;;;;;;;1.00;1.00;;;;;12.12;68.23;99916.03;4952583;28;45358;-60
2022/11/04 07:23:00;;;;;;;;;0.00;0.00;;;;;12.03;68.38;99906.56;5052592;28;45400;-61
2022/11/04 07:25:26;;;;;;;;;2.00;0.00;;;;;12.11;68.09;99919.56;4952862;28;45377;-61
2022/11/04 07:27:51;;;;;;;;;0.00;0.00;;;;;12.09;68.33;99919.59;5023386;28;45435;-61
2022/11/04 07:30:19;;;;;;;;;3.00;1.00;;;;;12.10;67.92;99908.19;4956882;28;45426;-63
2022/11/04 07:32:45;;;;;;;;;1.00;0.00;;;;;12.22;68.03;99930.72;5023253;28;47664;-62
2022/11/04 07:35:10;;;;;;;;;0.33;0.33;;;;;12.18;68.12;99932.56;4954018;28;45482;-60
2022/11/04 07:37:36;;;;;;;;;1.00;1.00;;;;;12.23;68.14;99941.22;4953069;28;45846;-62
2022/11/04 07:40:03;;;;;;;;;0.33;0.33;;;;;12.07;67.39;99903.00;4952461;28;45494;-62
2022/11/04 07:42:29;;;;;;;;;1.67;1.00;;;;;12.33;67.19;99935.81;4952940;28;46600;-61
2022/11/04 07:44:54;;;;;;;;;2.00;1.00;;;;;12.40;66.99;99953.19;4956013;28;45361;-62
2022/11/04 07:47:20;;;;;;;;;1.33;1.00;;;;;12.40;67.50;99945.31;4955321;28;45255;-61
2022/11/04 07:49:46;;;;;;;;;2.00;1.00;;;;;12.55;67.31;99965.16;4952543;28;45439;-64
2022/11/04 07:52:12;;;;;;;;;1.33;0.33;;;;;12.59;66.67;99969.47;4954663;28;46595;-65
2022/11/04 07:54:38;;;;;;;;;0.33;0.33;;;;;12.67;66.19;99970.19;4956446;28;45295;-61
2022/11/04 07:57:03;;;;;;;;;3.00;1.33;;;;;12.69;66.02;99965.78;4950944;28;45464;-60
2022/11/04 07:59:29;;;;;;;;;1.00;1.00;;;;;12.78;65.79;99975.25;5019092;28;45505;-62
2022/11/04 08:01:54;;;;;;;;;0.33;0.33;;;;;12.76;65.63;99972.63;4952064;28;46459;-62
2022/11/04 08:04:20;;;;;;;;;2.67;1.00;;;;;12.88;65.63;99982.94;4953840;28;45386;-61
2022/11/04 08:06:45;;;;;;;;;0.00;0.00;;;;;12.97;65.04;99976.63;4956046;28;45597;-64
2022/11/04 08:09:11;;;;;;;;;1.67;0.67;;;;;13.18;64.38;99987.59;4956131;28;45462;-61
2022/11/04 08:11:37;;;;;;;;;1.00;1.00;;;;;13.54;64.48;99988.59;5051432;28;45847;-61
2022/11/04 08:14:03;;;;;;;;;3.33;0.67;;;;;13.82;63.28;99994.13;5015042;28;45616;-62
2022/11/04 08:16:29;;;;;;;;;2.00;1.00;;;;;14.13;62.09;100003.91;5019133;28;45412;-64
2022/11/04 08:19:00;;;;;;;;;0.00;0.00;;;;;14.32;61.04;99989.38;4956419;28;45301;-62
2022/11/04 08:21:27;;;;;;;;;1.00;1.00;;;;;14.72;60.60;100004.19;4952886;28;46257;-63
2022/11/04 08:23:54;;;;;;;;;1.00;1.00;;;;;15.04;59.92;99999.81;4949795;28;45524;-66
2022/11/04 08:26:22;;;;;;;;;5.33;1.00;;;;;15.21;58.89;100008.13;4943906;28;45467;-63
2022/11/04 08:28:50;;;;;;;;;1.00;0.67;;;;;15.22;58.06;100006.34;4956266;28;45378;-62
2022/11/04 08:31:20;;;;;;;;;2.33;0.67;;;;;15.87;56.80;99994.72;5019514;28;47119;-62
2022/11/04 08:33:47;;;;;;;;;0.33;0.33;;;;;16.43;55.45;100010.53;4952219;28;45532;-67
2022/11/04 08:36:16;;;;;;;;;0.33;0.33;;;;;16.26;55.40;100002.31;4952685;28;45300;-63
2022/11/04 08:38:42;;;;;;;;;0.33;0.00;;;;;16.15;56.10;100010.56;4952390;28;45431;-65
2022/11/04 08:41:09;;;;;;;;;0.00;0.00;;;;;16.17;55.21;100011.38;5016177;28;46788;-64
2022/11/04 08:43:39;;;;;;;;;0.00;0.00;;;;;15.97;55.03;100019.06;4946599;28;45811;-61
2022/11/04 08:46:09;;;;;;;;;0.00;0.00;;;;;15.71;55.48;100022.53;4934166;28;45465;-65
2022/11/04 08:48:37;;;;;;;;;1.00;0.00;;;;;15.46;55.93;100033.78;4936420;28;45495;-65
2022/11/04 08:51:05;;;;;;;;;3.00;0.00;;;;;15.26;56.01;100042.28;5013066;28;45635;-64
2022/11/04 08:53:31;;;;;;;;;0.00;0.00;;;;;15.11;56.61;100048.84;4932043;28;45469;-66
2022/11/04 08:55:57;;;;;;;;;0.00;0.00;;;;;15.02;56.64;100062.31;4933413;28;45468;-64
2022/11/04 08:58:23;;;;;;;;;1.00;0.00;;;;;14.94;56.59;100057.22;4933895;28;45915;-66
2022/11/04 09:00:50;;;;;;;;;2.00;0.00;;;;;14.87;56.82;100050.38;5003320;28;47879;-65
2022/11/04 09:03:15;;;;;;;;;0.00;0.00;;;;;14.99;56.43;100060.59;4938920;28;45367;-64
2022/11/04 09:05:46;;;;;;;;;0.00;0.00;;;;;15.04;56.52;100071.00;4934612;28;46861;-62
2022/11/04 09:08:13;;;;;;;;;0.00;0.00;;;;;15.12;56.35;100073.47;4931207;28;45603;-62
2022/11/04 09:10:43;;;;;;;;;1.00;0.00;;;;;15.11;56.55;100084.91;4931262;28;45585;-61
2022/11/04 09:13:10;;;;;;;;;0.00;0.00;;;;;15.11;56.39;100082.25;4933391;28;45495;-61
2022/11/04 09:15:37;;;;;;;;;0.00;0.00;;;;;15.13;56.51;100083.09;5011028;28;45344;-62
2022/11/04 09:18:04;;;;;;;;;0.33;0.33;;;;;15.03;55.79;100078.06;5017184;28;45413;-62
2022/11/04 09:20:30;;;;;;;;;3.00;0.00;;;;;15.12;55.81;100087.50;4951330;28;45499;-61
2022/11/04 09:22:56;;;;;;;;;0.33;0.00;;;;;15.21;55.70;100089.00;4951406;28;45288;-63
2022/11/04 09:25:22;;;;;;;;;0.67;0.00;;;;;15.33;55.46;100098.38;4951166;28;45317;-62
2022/11/04 09:27:48;;;;;;;;;0.00;0.00;;;;;16.08;54.67;100096.22;4951168;28;45494;-64
2022/11/04 09:30:13;;;;;;;;;0.00;0.00;;;;;17.34;52.10;100099.97;4950547;28;46604;-62
2022/11/04 09:32:39;;;;;;;;;0.00;0.00;;;;;17.10;51.42;100099.91;4938488;28;45621;-61
2022/11/04 09:35:05;;;;;;;;;0.00;0.00;;;;;16.68;52.13;100100.47;4934737;28;45438;-61
2022/11/04 09:37:30;;;;;;;;;0.00;0.00;;;;;16.34;52.73;100105.97;4931848;28;45513;-64
2022/11/04 09:39:56;;;;;;;;;2.00;0.00;;;;;16.09;53.72;100112.03;4931540;28;46238;-62
2022/11/04 09:43:03;;;;;;;;;1.67;0.00;;;;;15.87;54.01;100118.84;4930540;28;45911;-63
2022/11/04 09:45:32;;;;;;;;;1.33;0.67;;;;;15.66;54.73;100122.94;4996741;28;45517;-66
2022/11/04 09:48:07;;;;;;;;;0.00;0.00;;;;;15.53;55.13;100129.50;5035106;28;45502;-64
2022/11/04 09:50:49;;;;;;;;;2.00;0.00;;;;;15.37;55.87;100134.31;4934856;28;45462;-62
2022/11/04 09:53:25;;;;;;;;;0.33;0.00;;;;;15.22;55.83;100148.81;5011038;28;45664;-64
2022/11/04 09:55:54;;;;;;;;;0.00;0.00;;;;;15.10;56.08;100152.63;4934573;28;45501;-62
2022/11/04 09:58:19;;;;;;;;;1.00;1.00;;;;;14.91;56.96;100139.03;4930909;28;45465;-63
2022/11/04 10:00:56;;;;;;;;;0.00;0.00;;;;;14.80;57.15;100141.94;5006468;28;47215;-65
2022/11/04 10:03:42;;;;;;;;;1.00;1.00;;;;;14.76;57.69;100163.13;4933457;28;45377;-61
2022/11/04 10:06:29;;;;;;;;;5.00;1.00;;;;;14.63;57.85;100166.06;4935383;28;45576;-62
2022/11/04 10:09:27;;;;;;;;;0.00;0.00;;;;;14.53;58.03;100174.22;4935422;28;45606;-64
2022/11/04 10:11:58;;;;;;;;;0.67;0.67;;;;;14.43;57.74;100187.59;4963358;28;45553;-64
2022/11/04 10:14:45;;;;;;;;;2.33;1.00;;;;;14.40;58.15;100187.66;4937114;28;45547;-64
2022/11/04 10:17:16;;;;;;;;;14.67;13.00;;;;;14.37;58.83;100194.75;4954547;28;45358;-63
2022/11/04 10:19:59;;;;;;;;;31.75;21.75;;;;;14.36;58.52;100196.53;5021610;28;45617;-63
2022/11/04 10:22:52;;;;;;;;;9.75;8.75;;;;;14.38;57.93;100204.41;5023828;28;48277;-64
2022/11/04 10:25:23;;;;;;;;;8.67;8.33;;;;;14.44;58.03;100212.16;4953804;28;45295;-66
2022/11/04 10:27:50;;;;;;;;;7.67;5.33;;;;;14.50;57.70;100203.25;4953711;28;45483;-65
2022/11/04 10:30:27;;;;;;;;;6.67;5.00;;;;;16.72;55.15;100225.50;4953560;28;45371;-63
2022/11/04 10:33:00;;;;;;;;;6.33;3.67;;;;;21.09;46.04;100214.97;5019694;28;45700;-69
2022/11/04 10:35:47;;;;;;;;;3.00;2.00;;;;;24.70;38.77;100209.56;5013634;28;45520;-66
2022/11/04 10:38:18;;;;;;;;;1.67;1.33;;;;;24.49;38.17;100217.19;4955626;28;45476;-68
2022/11/04 10:40:51;;;;;;;;;2.00;2.00;;;;;23.77;38.85;100227.00;5057966;27;45515;-67
2022/11/04 10:43:27;;;;;;;;;4.00;1.00;;;;;23.18;39.27;100229.59;4957084;28;45432;-66
2022/11/04 10:46:02;;;;;;;;;3.00;2.00;;;;;22.59;40.82;100248.03;4952481;28;45366;-67
2022/11/04 10:48:35;;;;;;;;;3.00;1.00;;;;;23.91;38.53;100248.41;5019346;28;45474;-66
2022/11/04 10:51:01;;;;;;;;;4.00;1.33;;;;;27.32;33.29;100213.56;4952986;28;45503;-66
2022/11/04 10:53:31;;;;;;;;;3.00;2.00;;;;;28.51;31.10;100238.34;4952962;28;46131;-62
2022/11/04 10:56:20;;;;;;;;;2.67;2.67;;;;;27.95;31.55;100241.84;5016216;28;45360;-63
2022/11/04 10:58:47;;;;;;;;;1.00;1.00;;;;;28.66;31.08;100264.03;4954064;28;45445;-62
2022/11/04 11:01:25;;;;;;;;;1.00;1.00;;;;;31.45;27.64;100262.41;4957247;28;45422;-63
2022/11/04 11:03:50;;;;;;;;;1.00;0.00;;;;;31.22;26.45;100259.94;4956752;28;46051;-63
2022/11/04 11:06:31;;;;;;;;;1.00;1.00;;;;;30.60;27.42;100267.34;4956529;28;45327;-63
2022/11/04 11:09:18;;;;;;;;;1.00;0.00;;;;;32.91;25.00;100268.22;4951162;28;45674;-62
2022/11/04 11:11:50;;;;;;;;;3.00;0.00;;;;;33.37;23.22;100266.31;4955114;28;45331;-63
2022/11/04 11:14:18;;;;;;;;;0.20;0.20;;;;;31.73;25.34;100276.06;4938494;28;46088;-63
2022/11/04 11:16:44;;;;;;;;;1.00;1.00;;;;;31.57;25.77;100284.75;4956730;28;45462;-64
2022/11/04 11:19:10;;;;;;;;;1.00;1.00;;;;;32.88;24.08;100289.34;4957008;28;45615;-64
2022/11/04 11:21:44;;;;;;;;;0.50;0.50;;;;;34.78;22.58;100296.13;4956749;28;45426;-63
2022/11/04 11:24:22;;;;;;;;;1.00;1.00;;;;;35.36;21.38;100288.97;4956844;28;45453;-64
2022/11/04 11:27:00;;;;;;;;;0.40;0.40;;;;;35.88;20.59;100313.19;4954523;28;45342;-68
2022/11/04 11:29:39;;;;;;;;;1.00;1.00;;;;;35.55;20.90;100269.56;5053571;28;45556;-65
2022/11/04 11:32:20;;;;;;;;;3.00;1.00;;;;;32.69;23.67;100249.63;4955495;28;45901;-68
2022/11/04 11:34:47;;;;;;;;;1.80;0.40;;;;;32.73;23.59;100316.13;4952651;28;46590;-69
2022/11/04 11:37:23;;;;;;;;;1.00;1.00;;;;;32.38;23.76;100314.97;4955529;28;45465;-79
2022/11/04 11:39:50;;;;;;;;;1.00;1.00;;;;;33.06;23.04;100284.84;4956712;28;45524;-66
2022/11/04 11:42:19;;;;;;;;;2.00;0.60;;;;;31.87;24.44;100318.94;4957283;28;45478;-68
2022/11/04 11:44:52;;;;;;;;;1.00;1.00;;;;;32.97;23.15;100322.84;4953805;28;45469;-65
2022/11/04 11:47:26;;;;;;;;;2.20;2.20;;;;;31.47;24.53;100268.53;5032017;28;45480;-67
2022/11/04 11:50:19;;;;;;;;;1.80;1.80;;;;;28.31;27.84;100296.50;5012071;28;45852;-65
2022/11/04 11:52:46;;;;;;;;;5.20;3.20;;;;;26.32;30.19;100312.19;4932989;28;45351;-65
2022/11/04 11:55:14;;;;;;;;;2.00;2.00;;;;;24.99;32.28;100317.50;4942492;28;45758;-64
2022/11/04 11:57:52;;;;;;;;;1.80;1.80;;;;;24.64;33.19;100328.66;5056331;28;45510;-64
2022/11/04 12:00:21;;;;;;;;;4.00;2.00;;;;;23.99;33.56;100326.41;5035902;28;45438;-66
2022/11/04 12:03:10;;;;;;;;;3.00;3.00;;;;;22.93;35.60;100336.94;4952382;28;45538;-63
2022/11/04 12:05:46;;;;;;;;;2.75;2.75;;;;;22.03;36.80;100347.03;4952346;28;45501;-62
2022/11/04 12:08:56;;;;;;;;;2.00;2.00;;;;;21.23;38.08;100351.94;4952206;28;45368;-65
2022/11/04 12:11:35;;;;;;;;;4.00;3.00;;;;;20.50;39.32;100370.34;4955574;28;45982;-67
2022/11/04 12:14:10;;;;;;;;;4.00;3.00;;;;;19.99;40.15;100375.25;4941606;28;45469;-62
2022/11/04 12:16:51;;;;;;;;;3.33;2.33;;;;;19.67;40.88;100396.03;4938767;28;46193;-64
2022/11/04 12:19:39;;;;;;;;;4.67;3.00;;;;;19.26;41.87;100395.88;4946054;28;45583;-64